Time;durP1;ratioP1;P1;durP2;ratioP2;P2;SDS_P1;SDS_P2;PMS_P1;PMS_P2;Temp;Humidity;BMP_temperature;BMP_pressure;BME280_temperature;BME280_humidity;BME280_pressure;Samples;Min_cycle;Max_cycle;Signal;HPM_P1;HPM_P2
2022/10/02 00:02:29;;;;;;;56.47;19.17;;;;;;;12.44;100.00;101354.72;5025202;28;20048;-68
2022/10/02 00:05:09;;;;;;;48.50;18.88;;;;;;;12.40;100.00;101350.72;5008430;28;20460;-68
2022/10/02 00:08:01;;;;;;;39.13;19.10;;;;;;;12.37;100.00;101353.97;5020696;28;20033;-68
2022/10/02 00:10:46;;;;;;;53.38;18.77;;;;;;;12.29;100.00;101359.78;5020461;28;20077;-68
2022/10/02 00:13:18;;;;;;;53.50;18.55;;;;;;;12.22;100.00;101360.94;5019327;28;20100;-68
2022/10/02 00:15:44;;;;;;;52.50;17.50;;;;;;;12.16;100.00;101360.75;5019972;28;20033;-68
2022/10/02 00:18:31;;;;;;;43.83;18.83;;;;;;;12.12;100.00;101359.53;5028211;28;20033;-67
2022/10/02 00:21:06;;;;;;;46.45;18.35;;;;;;;12.06;100.00;101359.59;5018751;28;20076;-68
2022/10/02 00:23:43;;;;;;;42.25;16.23;;;;;;;12.01;100.00;101364.94;5027247;28;20469;-67
2022/10/02 00:26:16;;;;;;;45.10;18.00;;;;;;;11.91;100.00;101366.34;5027598;28;20179;-68
2022/10/02 00:28:56;;;;;;;48.35;17.20;;;;;;;11.92;100.00;101365.25;5013146;28;20515;-68
2022/10/02 00:31:43;;;;;;;43.25;16.08;;;;;;;11.86;100.00;101357.91;5014431;28;20061;-68
2022/10/02 00:34:11;;;;;;;41.80;15.68;;;;;;;11.77;100.00;101370.25;5017287;28;20045;-68
2022/10/02 00:36:49;;;;;;;;;;;;;;;11.83;100.00;101363.03;5027988;28;20094;-68
2022/10/02 00:39:47;;;;;;;50.08;17.35;;;;;;;11.74;100.00;101361.59;5027925;28;19975;-68
2022/10/02 00:42:51;;;;;;;50.85;14.27;;;;;;;11.75;100.00;101358.59;5027615;28;20025;-68
2022/10/02 00:45:38;;;;;;;50.55;15.82;;;;;;;11.74;100.00;101367.09;5028071;28;20037;-68
2022/10/02 00:48:40;;;;;;;46.03;13.40;;;;;;;11.78;100.00;101366.41;5025043;28;20034;-68
2022/10/02 00:51:06;;;;;;;57.95;13.85;;;;;;;11.83;100.00;101363.88;5007103;28;20469;-68
2022/10/02 00:54:07;;;;;;;46.97;12.33;;;;;;;11.84;100.00;101364.69;5019992;28;20029;-68
2022/10/02 00:57:11;;;;;;;50.88;11.75;;;;;;;11.86;100.00;101365.31;4990996;28;20243;-68
2022/10/02 01:00:19;;;;;;;52.65;11.07;;;;;;;11.86;100.00;101360.66;5012798;28;20045;-68
2022/10/02 01:02:57;;;;;;;44.80;11.27;;;;;;;11.83;100.00;101369.38;5023255;28;20120;-67
2022/10/02 01:05:22;;;;;;;35.03;10.85;;;;;;;11.84;100.00;101368.28;5010683;28;20354;-68
2022/10/02 01:07:51;;;;;;;48.95;10.93;;;;;;;11.86;100.00;101357.03;5022110;28;20040;-68
2022/10/02 01:10:17;;;;;;;51.42;12.18;;;;;;;11.85;100.00;101356.22;5008149;28;20038;-68
2022/10/02 01:12:43;;;;;;;57.88;11.00;;;;;;;11.88;100.00;101358.50;5014221;28;20045;-68
2022/10/02 01:15:14;;;;;;;58.97;11.35;;;;;;;11.89;100.00;101365.69;5021185;28;20107;-68
2022/10/02 01:17:40;;;;;;;47.78;10.50;;;;;;;11.91;100.00;101360.84;5022478;28;20041;-68
2022/10/02 01:20:11;;;;;;;45.17;12.40;;;;;;;11.93;100.00;101360.59;5022652;28;20179;-68
2022/10/02 01:22:53;;;;;;;59.67;10.45;;;;;;;11.98;100.00;101348.91;5026967;28;20101;-68
2022/10/02 01:25:18;;;;;;;49.28;11.27;;;;;;;11.98;100.00;101348.91;5018563;28;20053;-69
2022/10/02 01:27:44;;;;;;;44.63;9.65;;;;;;;12.06;100.00;101359.59;5028280;28;20036;-67
2022/10/02 01:30:14;;;;;;;58.70;13.00;;;;;;;12.09;100.00;101350.91;5026462;28;20072;-68
2022/10/02 01:32:51;;;;;;;48.08;9.52;;;;;;;12.12;100.00;101361.47;5009893;28;20400;-68
2022/10/02 01:35:20;;;;;;;53.65;10.30;;;;;;;12.12;100.00;101367.81;5015413;28;20029;-68
2022/10/02 01:37:49;;;;;;;57.78;10.77;;;;;;;12.13;100.00;101368.66;5028151;28;20765;-68
2022/10/02 01:40:28;;;;;;;;;;;;;;;12.17;100.00;101370.72;5028286;28;20035;-68
2022/10/02 01:43:00;;;;;;;41.53;9.88;;;;;;;12.18;100.00;101364.13;5026741;28;19917;-68
2022/10/02 01:45:45;;;;;;;57.67;9.65;;;;;;;12.19;100.00;101371.31;5026013;28;20030;-67
2022/10/02 01:48:19;;;;;;;61.53;10.52;;;;;;;12.19;100.00;101368.56;5009457;28;20084;-67
2022/10/02 01:50:53;;;;;;;47.25;9.57;;;;;;;12.22;100.00;101367.28;5009063;28;20437;-68
2022/10/02 01:53:34;;;;;;;51.70;9.20;;;;;;;12.27;100.00;101361.94;5012407;28;20029;-69
2022/10/02 01:56:22;;;;;;;49.97;10.55;;;;;;;12.31;100.00;101360.38;5020106;28;20042;-68
2022/10/02 01:59:10;;;;;;;;;;;;;;;12.36;100.00;101363.28;5023544;28;20022;-68
2022/10/02 02:01:59;;;;;;;62.35;9.57;;;;;;;12.38;100.00;101371.34;5023165;28;20012;-68
2022/10/02 02:04:31;;;;;;;50.08;9.02;;;;;;;12.38;100.00;101366.66;5025893;28;20029;-68
2022/10/02 02:07:19;;;;;;;52.20;10.27;;;;;;;12.42;100.00;101372.56;5026397;28;20032;-68
2022/10/02 02:09:57;;;;;;;47.45;8.20;;;;;;;12.43;100.00;101379.75;5027082;28;20061;-68
2022/10/02 02:12:36;;;;;;;56.85;9.82;;;;;;;12.44;100.00;101386.94;5027095;28;20350;-68
2022/10/02 02:15:27;;;;;;;55.58;10.05;;;;;;;12.46;100.00;101382.03;5019768;28;20144;-68
2022/10/02 02:18:00;;;;;;;71.45;10.27;;;;;;;12.54;100.00;101383.66;5015128;28;20029;-68
2022/10/02 02:20:32;;;;;;;57.67;9.77;;;;;;;12.54;100.00;101380.88;5013586;28;20034;-68
2022/10/02 02:23:04;;;;;;;55.00;10.73;;;;;;;12.57;100.00;101388.69;5027095;28;20041;-68
2022/10/02 02:25:32;;;;;;;53.60;8.85;;;;;;;12.54;100.00;101376.22;5027250;28;20060;-68
2022/10/02 02:28:03;;;;;;;55.80;10.90;;;;;;;12.61;100.00;101392.66;5023976;28;20030;-68
2022/10/02 02:30:31;;;;;;;47.35;11.60;;;;;;;12.62;100.00;101384.19;5018773;28;20030;-68
2022/10/02 02:33:37;;;;;;;62.85;9.60;;;;;;;12.63;100.00;101376.75;5006939;28;20435;-68
2022/10/02 02:36:08;;;;;;;51.10;9.32;;;;;;;12.61;100.00;101382.47;4977521;28;20042;-68
2022/10/02 02:38:42;;;;;;;54.72;9.10;;;;;;;12.62;100.00;101378.66;5007802;28;20108;-67
2022/10/02 02:41:19;;;;;;;60.28;10.48;;;;;;;12.64;100.00;101381.19;5028578;28;20051;-68
2022/10/02 02:44:04;;;;;;;50.38;8.25;;;;;;;12.68;100.00;101386.00;5031436;28;20036;-68
2022/10/02 02:47:02;;;;;;;50.10;9.88;;;;;;;12.69;100.00;101384.09;5027779;28;20036;-67
2022/10/02 02:49:24;;;;;;;41.65;7.30;;;;;;;12.70;100.00;101394.03;5024683;28;20041;-68
2022/10/02 02:51:50;;;;;;;47.08;9.23;;;;;;;12.70;100.00;101394.88;5028311;28;20040;-68
2022/10/02 02:54:22;;;;;;;45.08;7.82;;;;;;;12.75;100.00;101390.59;5030463;28;20060;-68
2022/10/02 02:56:49;;;;;;;43.30;8.50;;;;;;;12.73;100.00;101386.16;5027981;28;20421;-68
2022/10/02 02:59:17;;;;;;;47.15;10.40;;;;;;;12.78;100.00;101387.38;5025687;28;20030;-68
2022/10/02 03:01:43;;;;;;;45.08;7.07;;;;;;;12.77;100.00;101388.44;5011802;28;20622;-67
2022/10/02 03:04:11;;;;;;;42.05;8.45;;;;;;;12.78;100.00;101387.38;5010499;28;20029;-68
2022/10/02 03:06:44;;;;;;;40.38;7.85;;;;;;;12.79;100.00;101378.88;5014634;28;20554;-68
2022/10/02 03:09:14;;;;;;;34.17;7.15;;;;;;;12.79;100.00;101387.13;5030618;28;20029;-67
2022/10/02 03:11:48;;;;;;;32.70;7.65;;;;;;;12.78;100.00;101382.69;5030195;28;20132;-68
2022/10/02 03:14:35;;;;;;;34.03;7.35;;;;;;;12.79;100.00;101378.88;5019763;28;20054;-67
2022/10/02 03:17:25;;;;;;;35.47;7.77;;;;;;;12.80;100.00;101385.22;5009672;28;20061;-68
2022/10/02 03:20:07;;;;;;;29.60;5.57;;;;;;;12.75;100.00;101377.63;5010514;28;20061;-68
2022/10/02 03:23:07;;;;;;;32.08;6.22;;;;;;;12.76;100.00;101390.34;5024553;28;20069;-67
2022/10/02 03:25:49;;;;;;;32.70;6.35;;;;;;;12.79;100.00;101384.38;5026459;28;20067;-67
2022/10/02 03:28:45;;;;;;;25.08;5.38;;;;;;;12.80;100.00;101386.06;5029888;28;20388;-67
2022/10/02 03:31:13;;;;;;;25.80;6.00;;;;;;;12.86;100.00;101390.63;5015140;28;20046;-68
2022/10/02 03:33:39;;;;;;;23.75;5.80;;;;;;;12.85;100.00;101393.63;5030235;28;20060;-67
2022/10/02 03:36:05;;;;;;;24.48;5.18;;;;;;;12.86;100.00;101396.16;5028701;28;20029;-68
2022/10/02 03:38:32;;;;;;;20.20;4.68;;;;;;;12.87;100.00;101392.31;5029601;28;20589;-68
2022/10/02 03:40:58;;;;;;;22.10;5.00;;;;;;;12.89;100.00;101389.34;5028606;28;20037;-68
2022/10/02 03:43:27;;;;;;;19.88;4.60;;;;;;;12.88;100.00;101405.03;5030245;28;20036;-68
2022/10/02 03:45:52;;;;;;;20.33;4.95;;;;;;;12.88;100.00;101399.53;5014579;28;20037;-68
2022/10/02 03:48:18;;;;;;;19.67;4.63;;;;;;;12.90;100.00;101405.63;5010004;28;20036;-68
2022/10/02 03:50:44;;;;;;;18.80;5.05;;;;;;;12.88;100.00;101399.53;5009350;28;20380;-67
2022/10/02 03:53:18;;;;;;;24.02;6.00;;;;;;;12.93;100.00;101396.91;5014410;28;20022;-67
2022/10/02 03:55:49;;;;;;;19.35;4.90;;;;;;;12.87;100.00;101400.59;5019728;28;20064;-68
2022/10/02 03:58:16;;;;;;;18.92;4.72;;;;;;;12.84;100.00;101395.56;5021439;28;20025;-68
2022/10/02 04:01:02;;;;;;;15.50;4.10;;;;;;;12.86;100.00;101404.41;5012137;28;20117;-68
2022/10/02 04:03:51;;;;;;;16.25;4.88;;;;;;;12.82;100.00;101405.94;5012603;28;20299;-68
2022/10/02 04:06:45;;;;;;;13.98;3.80;;;;;;;12.79;100.00;101406.44;5028517;28;20040;-68
2022/10/02 04:09:22;;;;;;;11.32;3.47;;;;;;;12.75;100.00;101407.97;5016809;28;20034;-68
2022/10/02 04:12:09;;;;;;;12.85;3.65;;;;;;;12.75;100.00;101410.72;5022544;28;20121;-68
2022/10/02 04:14:50;;;;;;;16.27;4.25;;;;;;;12.75;100.00;101401.59;5025312;28;20095;-68
2022/10/02 04:17:24;;;;;;;13.30;3.13;;;;;;;12.74;100.00;101403.53;5009847;28;20487;-68
2022/10/02 04:20:00;;;;;;;12.82;4.13;;;;;;;12.73;100.00;101396.34;5016247;28;20025;-68
2022/10/02 04:22:42;;;;;;;13.07;3.67;;;;;;;12.72;100.00;101394.63;5014323;28;20018;-68
2022/10/02 04:25:17;;;;;;;12.85;3.90;;;;;;;12.69;100.00;101395.94;5028722;28;20068;-68
2022/10/02 04:27:50;;;;;;;13.52;3.88;;;;;;;12.67;100.00;101391.72;5024711;28;20034;-68
2022/10/02 04:30:17;;;;;;;14.15;3.10;;;;;;;12.59;100.00;101384.63;5027773;28;20072;-68
2022/10/02 04:32:44;;;;;;;10.95;3.88;;;;;;;12.58;100.00;101385.72;5027906;28;20034;-68
2022/10/02 04:35:32;;;;;;;14.40;3.67;;;;;;;12.51;100.00;101390.44;5027597;28;20396;-68
2022/10/02 04:38:20;;;;;;;13.68;3.47;;;;;;;12.46;100.00;101395.81;5012345;28;20109;-67
2022/10/02 04:41:04;;;;;;;;;;;;;;;12.49;100.00;101394.50;5027602;28;20357;-68
2022/10/02 04:43:49;;;;;;;14.60;4.50;;;;;;;12.44;100.00;101412.56;5027867;28;20390;-68
2022/10/02 04:46:50;;;;;;;12.85;4.45;;;;;;;12.46;100.00;101417.84;5027307;28;20064;-68
2022/10/02 04:49:37;;;;;;;12.77;4.20;;;;;;;12.45;100.00;101425.25;5026381;28;20040;-68
2022/10/02 04:52:16;;;;;;;16.75;5.93;;;;;;;12.45;100.00;101435.44;5003588;28;20048;-68
2022/10/02 04:55:15;;;;;;;17.30;4.95;;;;;;;12.47;100.00;101427.81;5018722;28;20054;-68
2022/10/02 04:58:03;;;;;;;15.48;5.00;;;;;;;12.49;100.00;101436.69;5011539;28;20029;-68
2022/10/02 05:00:40;;;;;;;19.92;6.07;;;;;;;12.47;100.00;101430.56;5022748;28;20021;-68
2022/10/02 05:03:16;;;;;;;15.45;5.47;;;;;;;12.49;100.00;101433.94;5025336;28;20033;-67
2022/10/02 05:06:13;;;;;;;15.73;5.35;;;;;;;12.46;100.00;101440.72;5020087;28;20033;-67
2022/10/02 05:08:38;;;;;;;16.73;5.32;;;;;;;12.43;100.00;101432.09;4991317;28;20057;-68
2022/10/02 05:11:22;;;;;;;19.92;6.13;;;;;;;12.48;100.00;101436.91;5025635;28;20036;-67
2022/10/02 05:14:07;;;;;;;20.70;6.30;;;;;;;12.45;100.00;101438.19;5026491;28;20399;-67
2022/10/02 05:16:38;;;;;;;23.58;7.07;;;;;;;12.43;100.00;101430.19;5026463;28;20057;-67
2022/10/02 05:19:19;;;;;;;22.45;6.47;;;;;;;12.45;100.00;101428.03;5017435;28;20034;-68
2022/10/02 05:21:59;;;;;;;19.70;6.70;;;;;;;12.47;100.00;101430.56;5023029;28;20087;-68
2022/10/02 05:24:39;;;;;;;20.30;6.63;;;;;;;12.50;100.00;101441.13;5013792;28;20116;-68
2022/10/02 05:27:30;;;;;;;19.58;6.38;;;;;;;12.54;100.00;101442.34;5027547;28;20029;-68
2022/10/02 05:30:06;;;;;;;20.85;6.45;;;;;;;12.51;100.00;101444.72;5026749;28;20037;-68
2022/10/02 05:33:12;;;;;;;25.60;7.20;;;;;;;12.56;100.00;101448.47;5026465;28;20044;-68
2022/10/02 05:36:01;;;;;;;26.05;7.57;;;;;;;12.55;100.00;101455.03;5024234;28;20048;-68
2022/10/02 05:38:48;;;;;;;25.90;9.63;;;;;;;12.60;100.00;101462.63;5025979;28;20026;-68
2022/10/02 05:41:19;;;;;;;22.60;9.32;;;;;;;12.60;100.00;101462.63;5009560;28;20034;-68
2022/10/02 05:43:51;;;;;;;29.50;10.18;;;;;;;12.63;100.00;101463.03;5019616;28;20033;-68
2022/10/02 05:46:25;;;;;;;34.00;12.27;;;;;;;12.66;100.00;101461.69;5026715;28;20125;-68
2022/10/02 05:49:15;;;;;;;26.98;11.48;;;;;;;12.69;100.00;101464.00;5027511;28;20090;-68
2022/10/02 05:51:50;;;;;;;30.65;10.82;;;;;;;12.65;100.00;101476.56;5012581;28;20037;-68
2022/10/02 05:54:36;;;;;;;32.08;12.15;;;;;;;12.65;100.00;101462.78;5010117;28;20561;-67
2022/10/02 05:57:15;;;;;;;36.15;14.20;;;;;;;12.65;100.00;101471.06;5007268;28;20034;-68
2022/10/02 05:59:56;;;;;;;34.15;14.43;;;;;;;12.69;100.00;101472.28;5015623;28;20029;-67
2022/10/02 06:02:47;;;;;;;35.47;13.65;;;;;;;12.73;100.00;101474.34;5027643;28;20030;-68
2022/10/02 06:05:29;;;;;;;32.28;14.20;;;;;;;12.75;100.00;101471.34;5026525;28;20068;-68
2022/10/02 06:08:02;;;;;;;33.97;14.00;;;;;;;12.75;100.00;101468.59;5023024;28;20432;-67
2022/10/02 06:10:33;;;;;;;35.17;14.52;;;;;;;12.77;100.00;101471.97;5023283;28;20376;-68
2022/10/02 06:13:09;;;;;;;30.95;14.80;;;;;;;12.77;100.00;101484.91;5024270;28;20062;-68
2022/10/02 06:15:59;;;;;;;36.42;15.20;;;;;;;12.79;100.00;101494.63;5010794;28;20029;-67
2022/10/02 06:18:28;;;;;;;34.20;15.52;;;;;;;12.87;100.00;101497.06;5022996;28;20067;-67
2022/10/02 06:21:00;;;;;;;34.83;15.57;;;;;;;12.87;100.00;101502.59;5022121;28;20079;-68
2022/10/02 06:23:33;;;;;;;36.28;16.08;;;;;;;12.91;100.00;101505.72;5023757;28;20069;-68
2022/10/02 06:26:34;;;;;;;39.22;17.30;;;;;;;12.94;100.00;101514.41;5023220;28;20349;-68
2022/10/02 06:29:19;;;;;;;39.97;15.52;;;;;;;12.98;100.00;101503.75;5018182;28;20499;-68
2022/10/02 06:32:02;;;;;;;30.30;14.07;;;;;;;13.01;100.00;101500.53;5025921;28;20435;-68
2022/10/02 06:34:27;;;;;;;40.15;14.43;;;;;;;13.03;100.00;101497.53;5023600;28;20358;-67
2022/10/02 06:37:20;;;;;;;37.67;16.48;;;;;;;13.06;100.00;101505.34;5007961;28;20076;-68
2022/10/02 06:40:02;;;;;;;34.58;13.90;;;;;;;13.10;100.00;101501.91;5016072;28;20041;-67
2022/10/02 06:42:40;;;;;;;35.53;13.35;;;;;;;13.12;100.00;101504.41;5005427;28;20041;-68
2022/10/02 06:45:18;;;;;;;;;;;;;;;13.16;100.00;101506.47;5025624;28;20068;-68
2022/10/02 06:47:57;;;;;;;46.97;13.52;;;;;;;13.19;100.00;101516.22;5024326;28;19939;-67
2022/10/02 06:50:38;;;;;;;38.47;12.07;;;;;;;13.24;100.00;101521.91;5023236;28;20112;-68
2022/10/02 06:53:33;;;;;;;30.00;12.65;;;;;;;13.27;100.00;101518.69;5025604;28;20029;-68
2022/10/02 06:56:11;;;;;;;33.97;12.23;;;;;;;13.33;100.00;101528.81;5016994;28;20030;-67
2022/10/02 06:59:04;;;;;;;34.25;12.43;;;;;;;13.34;100.00;101532.41;5024984;28;20029;-68
2022/10/02 07:02:07;;;;;;;36.08;11.30;;;;;;;13.38;100.00;101539.13;5022441;28;20028;-67
2022/10/02 07:04:50;;;;;;;33.20;11.15;;;;;;;13.37;100.00;101538.28;5016667;28;20571;-67
2022/10/02 07:07:51;;;;;;;36.65;10.65;;;;;;;13.39;100.00;101544.44;5026098;28;20037;-68
2022/10/02 07:10:50;;;;;;;38.25;11.93;;;;;;;13.42;100.00;101541.19;5010020;28;20061;-67
2022/10/02 07:13:31;;;;;;;29.15;10.18;;;;;;;13.49;100.00;101538.34;5016686;28;20678;-68
2022/10/02 07:16:12;;;;;;;38.20;11.00;;;;;;;13.55;100.00;101544.84;5035790;28;20047;-68
2022/10/02 07:18:53;;;;;;;38.70;10.68;;;;;;;13.59;100.00;101537.78;5020613;28;20052;-67
2022/10/02 07:21:28;;;;;;;31.83;9.70;;;;;;;13.59;100.00;101538.63;5023705;28;20049;-68
2022/10/02 07:24:15;;;;;;;32.08;10.50;;;;;;;13.66;100.00;101544.06;5023069;28;20038;-67
2022/10/02 07:26:53;;;;;;;36.03;11.37;;;;;;;13.65;100.00;101545.13;5029224;28;20025;-68
2022/10/02 07:29:31;;;;;;;33.00;10.88;;;;;;;13.65;100.00;101553.41;5029188;28;20285;-69
2022/10/02 07:32:16;;;;;;;26.95;11.35;;;;;;;13.65;100.00;101554.25;5029250;28;20069;-67
2022/10/02 07:35:18;;;;;;;30.77;11.45;;;;;;;13.68;100.00;101552.94;5024583;28;20084;-67
2022/10/02 07:37:50;;;;;;;32.10;11.32;;;;;;;13.77;100.00;101554.28;5028466;28;20369;-68
2022/10/02 07:40:46;;;;;;;37.10;11.27;;;;;;;13.79;100.00;101559.56;5029782;28;20037;-67
2022/10/02 07:43:18;;;;;;;33.88;10.95;;;;;;;13.83;100.00;101561.63;5027426;28;20033;-67
2022/10/02 07:46:09;;;;;;;34.22;12.40;;;;;;;13.94;100.00;101562.78;5028200;28;20663;-68
2022/10/02 07:48:52;;;;;;;33.28;11.65;;;;;;;14.03;100.00;101558.56;5025727;28;20025;-67
2022/10/02 07:51:46;;;;;;;32.30;12.82;;;;;;;14.12;100.00;101559.06;5027127;28;20427;-67
2022/10/02 07:54:38;;;;;;;29.33;12.07;;;;;;;14.25;100.00;101569.94;5029505;28;20022;-68
2022/10/02 07:57:45;;;;;;;31.33;12.65;;;;;;;14.41;100.00;101569.22;5029285;28;20037;-68
2022/10/02 08:00:16;;;;;;;27.43;12.57;;;;;;;14.64;100.00;101564.81;5006412;28;20381;-68
2022/10/02 08:02:57;;;;;;;29.75;12.90;;;;;;;14.67;100.00;101565.19;5018361;28;20021;-68
2022/10/02 08:05:28;;;;;;;26.25;12.50;;;;;;;14.68;100.00;101572.38;5028331;28;20388;-68
2022/10/02 08:07:58;;;;;;;36.05;12.35;;;;;;;14.69;100.00;101578.75;5021564;28;20065;-67
2022/10/02 08:10:30;;;;;;;33.33;13.70;;;;;;;14.71;100.00;101577.44;5009561;28;20077;-68
2022/10/02 08:13:20;;;;;;;33.50;13.80;;;;;;;14.73;100.00;101589.09;5009147;28;20046;-68
2022/10/02 08:15:50;;;;;;;27.13;12.73;;;;;;;14.70;100.00;101591.50;5009248;28;20076;-68
2022/10/02 08:18:31;;;;;;;24.13;12.55;;;;;;;14.76;100.00;101596.09;5022965;28;20029;-67
2022/10/02 08:20:57;;;;;;;27.42;12.70;;;;;;;14.83;100.00;101598.72;5028430;28;20028;-68
2022/10/02 08:23:30;;;;;;;31.70;14.48;;;;;;;14.87;100.00;101611.84;5016141;28;20041;-68
2022/10/02 08:26:03;;;;;;;29.33;13.25;;;;;;;14.92;100.00;101611.09;5012695;28;20045;-68
2022/10/02 08:28:30;;;;;;;27.48;12.65;;;;;;;14.98;100.00;101610.13;5010360;28;20118;-68
2022/10/02 08:30:57;;;;;;;35.83;13.18;;;;;;;15.00;100.00;101617.13;5014117;28;20053;-68
2022/10/02 08:33:23;;;;;;;28.80;12.60;;;;;;;15.02;100.00;101623.25;5022847;28;20034;-68
2022/10/02 08:36:29;;;;;;;26.48;12.45;;;;;;;15.09;100.00;101619.50;5028396;28;20510;-69
2022/10/02 08:39:15;;;;;;;26.73;11.48;;;;;;;15.20;100.00;101616.72;5008236;28;20129;-68
2022/10/02 08:41:43;;;;;;;26.23;11.68;;;;;;;15.21;100.00;101617.59;4978783;28;20092;-68
2022/10/02 08:44:30;;;;;;;23.17;11.13;;;;;;;15.19;100.00;101634.41;5027020;28;20060;-69
2022/10/02 08:47:36;;;;;;;32.42;11.43;;;;;;;15.15;100.00;101638.75;5028701;28;20040;-68
2022/10/02 08:50:39;;;;;;;29.58;12.60;;;;;;;15.23;100.00;101641.16;4947153;29;20454;-68
2022/10/02 08:53:26;;;;;;;21.27;10.20;;;;;;;15.29;100.00;101644.88;5023378;28;20415;-68
2022/10/02 08:56:27;;;;;;;23.65;9.35;;;;;;;15.37;100.00;101644.50;5024656;28;20082;-68
2022/10/02 08:59:22;;;;;;;26.40;8.82;;;;;;;15.46;100.00;101644.97;5010655;28;20088;-68
2022/10/02 09:02:12;;;;;;;23.88;9.27;;;;;;;15.40;100.00;101648.72;5027434;28;20116;-68
2022/10/02 09:04:49;;;;;;;22.55;9.10;;;;;;;15.34;100.00;101658.81;5012099;28;20035;-68
2022/10/02 09:07:48;;;;;;;23.83;8.40;;;;;;;15.31;100.00;101673.16;5027820;28;20116;-68
2022/10/02 09:10:46;;;;;;;28.15;7.97;;;;;;;15.34;100.00;101674.59;5021679;28;20052;-68
2022/10/02 09:13:41;;;;;;;19.98;7.57;;;;;;;15.70;99.56;101666.00;5022148;28;20388;-68
2022/10/02 09:16:13;;;;;;;22.08;6.53;;;;;;;16.15;94.99;101661.63;5032249;28;20025;-67
2022/10/02 09:18:58;;;;;;;25.25;6.80;;;;;;;16.64;93.42;101664.75;5027193;28;20033;-68
2022/10/02 09:21:57;;;;;;;19.50;6.07;;;;;;;18.07;90.71;101662.94;4993117;28;20120;-67
2022/10/02 09:24:49;;;;;;;15.45;5.53;;;;;;;19.10;82.37;101653.59;5014377;28;20043;-68
2022/10/02 09:27:26;;;;;;;16.98;4.93;;;;;;;19.04;79.66;101663.84;5027340;28;20029;-67
2022/10/02 09:30:10;;;;;;;19.00;5.53;;;;;;;18.63;81.20;101655.16;5026038;28;20032;-68
2022/10/02 09:32:54;;;;;;;18.90;5.40;;;;;;;18.18;81.70;101663.91;5023663;28;20022;-67
2022/10/02 09:35:56;;;;;;;20.25;5.05;;;;;;;17.83;84.70;101656.81;5027019;28;20038;-68
2022/10/02 09:39:08;;;;;;;17.60;6.15;;;;;;;17.54;85.98;101658.94;5027747;28;20106;-68
2022/10/02 09:41:43;;;;;;;22.73;5.40;;;;;;;17.22;86.21;101666.25;5008696;28;20047;-67
2022/10/02 09:44:27;;;;;;;21.45;4.82;;;;;;;17.21;85.26;101664.56;5024806;28;20798;-67
2022/10/02 09:47:05;;;;;;;19.55;4.93;;;;;;;17.46;85.42;101669.66;5009294;28;20452;-67
2022/10/02 09:49:43;;;;;;;;;;;;;;;17.72;87.13;101682.78;5007975;28;20125;-67
2022/10/02 09:52:14;;;;;;;18.63;4.53;;;;;;;17.97;84.06;101678.66;5007294;28;19917;-67
2022/10/02 09:55:00;;;;;;;14.25;4.45;;;;;;;17.85;81.57;101674.09;5017743;28;20032;-67
2022/10/02 09:57:56;;;;;;;18.67;5.05;;;;;;;18.26;82.60;101677.34;5027811;28;20029;-67
2022/10/02 10:00:47;;;;;;;15.50;3.90;;;;;;;19.54;77.55;101682.00;5025610;28;20033;-67
2022/10/02 10:03:26;;;;;;;20.95;4.28;;;;;;;20.87;71.32;101679.63;5025819;28;20033;-67
2022/10/02 10:06:27;;;;;;;18.10;4.35;;;;;;;22.47;70.40;101685.28;5024531;28;20045;-68
2022/10/02 10:09:21;;;;;;;20.17;4.63;;;;;;;23.50;58.87;101677.63;5027250;28;20040;-67
2022/10/02 10:12:15;;;;;;;15.35;3.10;;;;;;;24.00;57.31;101679.00;4960514;28;20047;-68
2022/10/02 10:15:08;;;;;;;18.63;3.90;;;;;;;23.86;60.07;101680.88;4987649;28;20096;-68
2022/10/02 10:17:50;;;;;;;15.43;3.55;;;;;;;23.85;56.28;101684.00;5019388;28;20033;-68
2022/10/02 10:20:35;;;;;;;15.52;3.13;;;;;;;23.72;54.91;101680.78;5006031;28;20037;-67
2022/10/02 10:23:35;;;;;;;15.02;3.30;;;;;;;23.21;60.36;101695.31;5006660;28;20061;-67
2022/10/02 10:26:13;;;;;;;18.38;2.92;;;;;;;21.84;57.15;101690.59;5006903;28;20385;-67
2022/10/02 10:29:03;;;;;;;12.55;3.08;;;;;;;21.17;62.54;101699.13;5017233;28;20029;-67
2022/10/02 10:31:56;;;;;;;16.63;2.92;;;;;;;21.56;65.04;101706.94;5025755;28;20036;-67
2022/10/02 10:35:05;;;;;;;11.45;2.70;;;;;;;21.03;64.66;101712.00;5010114;28;20160;-68
2022/10/02 10:40:52;;;;;;;15.43;3.13;;;;;;;18.88;67.66;101726.09;5007413;28;20057;-67
2022/10/02 10:43:42;;;;;;;18.67;3.58;;;;;;;18.45;69.71;101732.59;5009651;28;20112;-67
2022/10/02 10:46:31;;;;;;;15.20;3.03;;;;;;;18.51;71.12;101729.63;5023980;28;20048;-67
2022/10/02 10:49:20;;;;;;;17.65;3.47;;;;;;;18.70;69.85;101734.81;5007263;28;20118;-67
2022/10/02 10:52:21;;;;;;;14.32;3.72;;;;;;;18.80;69.94;101740.47;5007298;28;20399;-68
2022/10/02 10:55:21;;;;;;;16.02;4.20;;;;;;;20.58;64.00;101723.97;4989875;28;20104;-67
2022/10/02 10:58:13;;;;;;;15.57;3.42;;;;;;;21.27;61.12;101731.00;4994883;28;20045;-67
2022/10/02 11:01:12;;;;;;;12.10;3.20;;;;;;;21.42;59.21;101725.41;5019021;28;20036;-67
2022/10/02 11:03:59;;;;;;;15.52;3.83;;;;;;;21.50;60.48;101716.47;5029851;28;20662;-67
2022/10/02 11:06:33;;;;;;;14.23;2.60;;;;;;;21.51;58.14;101718.13;5029483;28;20056;-67
2022/10/02 11:09:26;;;;;;;11.23;3.13;;;;;;;20.99;60.13;101730.47;5028086;28;20037;-67
2022/10/02 11:12:13;;;;;;;11.90;2.42;;;;;;;20.37;58.93;101725.84;5030240;28;20084;-67
2022/10/02 11:15:03;;;;;;;10.57;2.10;;;;;;;19.85;62.41;101733.19;5028660;28;20281;-66
2022/10/02 11:17:47;;;;;;;12.65;2.60;;;;;;;19.62;64.83;101723.34;5016615;28;20037;-67
2022/10/02 11:20:49;;;;;;;14.95;2.75;;;;;;;19.83;63.05;101734.59;5010366;28;20137;-66
2022/10/02 11:23:33;;;;;;;12.60;2.90;;;;;;;20.04;64.11;101730.78;4996188;28;20477;-67
2022/10/02 11:26:04;;;;;;;11.43;2.72;;;;;;;19.55;63.81;101733.81;5010043;28;20073;-67
2022/10/02 11:29:02;;;;;;;11.63;2.78;;;;;;;19.41;65.88;101752.13;5009055;28;20034;-67
2022/10/02 11:32:02;;;;;;;12.30;2.78;;;;;;;19.47;66.50;101747.44;5010251;28;20034;-67
2022/10/02 11:34:41;;;;;;;20.15;4.15;;;;;;;18.86;65.91;101736.66;5022357;28;20076;-67
2022/10/02 11:37:35;;;;;;;14.32;2.88;;;;;;;18.40;69.10;101750.09;5028384;28;20128;-67
2022/10/02 11:40:33;;;;;;;14.88;2.90;;;;;;;17.98;70.29;101758.16;5009593;28;20041;-66
2022/10/02 11:43:14;;;;;;;13.38;2.80;;;;;;;17.60;71.34;101759.84;5010301;28;20092;-67
2022/10/02 11:46:10;;;;;;;16.13;2.95;;;;;;;17.32;73.27;101758.88;5023832;28;20061;-67
2022/10/02 11:48:47;;;;;;;14.00;2.80;;;;;;;17.11;72.88;101765.19;5016745;28;20050;-67
2022/10/02 11:51:22;;;;;;;20.45;4.38;;;;;;;17.04;73.92;101764.53;5029341;28;20276;-67
2022/10/02 11:54:23;;;;;;;16.10;2.85;;;;;;;16.96;74.35;101770.47;5028899;28;20026;-67
2022/10/02 11:57:22;;;;;;;13.70;2.83;;;;;;;16.94;75.05;101761.56;5028526;28;20037;-68
2022/10/02 12:00:04;;;;;;;13.35;2.53;;;;;;;17.04;74.79;101770.91;5009452;28;20055;-67
2022/10/02 12:03:07;;;;;;;14.00;3.08;;;;;;;17.11;73.80;101759.63;5029265;28;20040;-67
2022/10/02 12:06:02;;;;;;;13.35;2.70;;;;;;;17.16;74.51;101767.22;5027168;28;20038;-67
2022/10/02 12:08:35;;;;;;;13.98;3.58;;;;;;;17.20;75.06;101765.63;5029296;28;20029;-67
2022/10/02 12:11:13;;;;;;;12.57;3.15;;;;;;;17.64;75.86;101772.97;5028243;28;20048;-67
2022/10/02 12:13:49;;;;;;;11.73;2.38;;;;;;;18.50;73.45;101761.31;5028681;28;20045;-67
2022/10/02 12:16:26;;;;;;;10.93;2.53;;;;;;;19.08;69.40;101765.25;5023416;28;20516;-67
2022/10/02 12:19:18;;;;;;;13.17;2.77;;;;;;;19.41;68.43;101771.63;5009390;28;20389;-67
2022/10/02 12:28:21;;;;;;;12.20;2.95;;;;;;;19.34;66.08;101776.59;5029346;28;20420;-67